sensor_id;sensor_type;location;lat;lon;timestamp;pressure;altitude;pressure_sealevel;temperature;humidity
64644;BME280;51056;50.330;7.914;2022-12-17T00:00:14;101351.69;;;-5.86;70.21
64644;BME280;51056;50.330;7.914;2022-12-17T00:04:11;101351.97;;;-5.75;70.28
64644;BME280;51056;50.330;7.914;2022-12-17T00:11:50;101365.69;;;-6.01;71.64
64644;BME280;51056;50.330;7.914;2022-12-17T00:15:11;101355.63;;;-5.65;70.95
64644;BME280;51056;50.330;7.914;2022-12-17T00:18:33;101363.94;;;-5.72;70.77
64644;BME280;51056;50.330;7.914;2022-12-17T00:21:55;101354.22;;;-5.86;70.63
64644;BME280;51056;50.330;7.914;2022-12-17T00:25:16;101376.75;;;-6.01;71.23
64644;BME280;51056;50.330;7.914;2022-12-17T00:28:39;101367.78;;;-6.18;71.77
64644;BME280;51056;50.330;7.914;2022-12-17T00:32:03;101371.19;;;-5.86;71.65
64644;BME280;51056;50.330;7.914;2022-12-17T00:35:27;101382.34;;;-5.82;71.81
64644;BME280;51056;50.330;7.914;2022-12-17T00:38:48;101375.28;;;-5.61;70.56
64644;BME280;51056;50.330;7.914;2022-12-17T00:42:14;101383.53;;;-5.70;71.40
64644;BME280;51056;50.330;7.914;2022-12-17T00:45:37;101376.09;;;-5.62;71.03
64644;BME280;51056;50.330;7.914;2022-12-17T00:49:02;101381.34;;;-5.56;70.77
64644;BME280;51056;50.330;7.914;2022-12-17T00:52:27;101382.31;;;-5.52;71.42
64644;BME280;51056;50.330;7.914;2022-12-17T00:55:49;101387.16;;;-5.62;71.48
64644;BME280;51056;50.330;7.914;2022-12-17T00:59:12;101390.84;;;-5.52;72.12
64644;BME280;51056;50.330;7.914;2022-12-17T01:03:08;101392.13;;;-5.66;72.05
64644;BME280;51056;50.330;7.914;2022-12-17T01:06:33;101394.16;;;-5.54;72.32
64644;BME280;51056;50.330;7.914;2022-12-17T01:09:57;101401.75;;;-5.56;72.85
64644;BME280;51056;50.330;7.914;2022-12-17T01:13:20;101413.81;;;-5.50;72.71
64644;BME280;51056;50.330;7.914;2022-12-17T01:16:49;101412.69;;;-5.28;72.11
64644;BME280;51056;50.330;7.914;2022-12-17T01:20:11;101416.25;;;-5.53;72.90
64644;BME280;51056;50.330;7.914;2022-12-17T01:23:34;101421.94;;;-5.32;73.30
64644;BME280;51056;50.330;7.914;2022-12-17T01:26:56;101420.84;;;-5.42;73.21
64644;BME280;51056;50.330;7.914;2022-12-17T01:30:24;101418.38;;;-5.39;73.33
64644;BME280;51056;50.330;7.914;2022-12-17T01:33:50;101419.50;;;-5.27;73.13
64644;BME280;51056;50.330;7.914;2022-12-17T01:37:12;101419.69;;;-5.21;73.69
64644;BME280;51056;50.330;7.914;2022-12-17T01:56:06;101433.50;;;-5.13;72.97
64644;BME280;51056;50.330;7.914;2022-12-17T02:33:42;101437.66;;;-4.83;74.95
64644;BME280;51056;50.330;7.914;2022-12-17T02:42:26;101447.63;;;-4.93;75.65
64644;BME280;51056;50.330;7.914;2022-12-17T02:46:28;101447.94;;;-4.80;75.37
64644;BME280;51056;50.330;7.914;2022-12-17T02:49:51;101444.38;;;-4.85;75.56
64644;BME280;51056;50.330;7.914;2022-12-17T02:53:18;101450.06;;;-4.97;75.87
64644;BME280;51056;50.330;7.914;2022-12-17T02:56:40;101458.13;;;-4.80;75.07
64644;BME280;51056;50.330;7.914;2022-12-17T03:01:15;101449.63;;;-4.81;75.22
64644;BME280;51056;50.330;7.914;2022-12-17T03:04:44;101451.69;;;-4.66;75.11
64644;BME280;51056;50.330;7.914;2022-12-17T03:08:07;101448.69;;;-4.50;74.54
64644;BME280;51056;50.330;7.914;2022-12-17T03:11:32;101462.94;;;-4.58;74.50
64644;BME280;51056;50.330;7.914;2022-12-17T03:15:16;101464.72;;;-4.55;74.37
64644;BME280;51056;50.330;7.914;2022-12-17T03:34:13;101465.41;;;-4.62;75.15
64644;BME280;51056;50.330;7.914;2022-12-17T04:04:06;101489.38;;;-4.56;77.76
64644;BME280;51056;50.330;7.914;2022-12-17T04:08:14;101489.00;;;-4.71;77.83
64644;BME280;51056;50.330;7.914;2022-12-17T05:31:24;101568.06;;;-4.39;78.04
64644;BME280;51056;50.330;7.914;2022-12-17T05:55:20;101583.63;;;-4.30;77.63
64644;BME280;51056;50.330;7.914;2022-12-17T05:58:53;101583.75;;;-4.57;77.70
64644;BME280;51056;50.330;7.914;2022-12-17T06:02:18;101588.19;;;-4.52;78.19
64644;BME280;51056;50.330;7.914;2022-12-17T06:05:55;101585.81;;;-4.76;79.11
64644;BME280;51056;50.330;7.914;2022-12-17T06:09:20;101584.59;;;-4.90;78.84
64644;BME280;51056;50.330;7.914;2022-12-17T06:12:53;101595.22;;;-4.75;78.84
64644;BME280;51056;50.330;7.914;2022-12-17T06:16:16;101611.72;;;-4.62;78.34
64644;BME280;51056;50.330;7.914;2022-12-17T06:19:38;101611.50;;;-4.70;78.37
64644;BME280;51056;50.330;7.914;2022-12-17T06:23:04;101618.38;;;-4.67;78.85
64644;BME280;51056;50.330;7.914;2022-12-17T06:26:35;101620.69;;;-4.76;78.97
64644;BME280;51056;50.330;7.914;2022-12-17T06:29:57;101627.47;;;-4.77;78.71
64644;BME280;51056;50.330;7.914;2022-12-17T06:33:18;101634.31;;;-5.06;78.46
64644;BME280;51056;50.330;7.914;2022-12-17T06:36:50;101637.31;;;-4.89;79.02
64644;BME280;51056;50.330;7.914;2022-12-17T06:40:18;101632.66;;;-5.04;79.37
64644;BME280;51056;50.330;7.914;2022-12-17T06:43:42;101633.09;;;-4.88;78.84
64644;BME280;51056;50.330;7.914;2022-12-17T06:47:10;101635.03;;;-5.39;80.64
64644;BME280;51056;50.330;7.914;2022-12-17T06:50:39;101645.75;;;-4.92;79.37
64644;BME280;51056;50.330;7.914;2022-12-17T06:54:02;101647.78;;;-5.10;80.25
64644;BME280;51056;50.330;7.914;2022-12-17T06:57:26;101652.97;;;-5.35;80.23
64644;BME280;51056;50.330;7.914;2022-12-17T07:00:51;101650.84;;;-5.22;79.61
64644;BME280;51056;50.330;7.914;2022-12-17T07:04:13;101664.97;;;-5.31;80.61
64644;BME280;51056;50.330;7.914;2022-12-17T07:26:54;101697.16;;;-4.49;76.78
64644;BME280;51056;50.330;7.914;2022-12-17T07:31:11;101705.34;;;-4.61;77.21
64644;BME280;51056;50.330;7.914;2022-12-17T07:34:44;101701.16;;;-4.59;76.94
64644;BME280;51056;50.330;7.914;2022-12-17T07:38:07;101702.97;;;-4.53;77.31
64644;BME280;51056;50.330;7.914;2022-12-17T07:46:31;101708.44;;;-4.71;77.29
64644;BME280;51056;50.330;7.914;2022-12-17T07:49:52;101712.69;;;-4.72;77.76
64644;BME280;51056;50.330;7.914;2022-12-17T07:53:23;101720.56;;;-4.64;76.93
64644;BME280;51056;50.330;7.914;2022-12-17T07:58:07;101726.59;;;-4.91;77.21
64644;BME280;51056;50.330;7.914;2022-12-17T08:16:10;101739.97;;;-4.98;78.31
64644;BME280;51056;50.330;7.914;2022-12-17T08:19:32;101745.00;;;-5.01;78.45
64644;BME280;51056;50.330;7.914;2022-12-17T08:33:05;101762.13;;;-4.95;78.48
64644;BME280;51056;50.330;7.914;2022-12-17T08:36:53;101767.38;;;-5.18;79.38
64644;BME280;51056;50.330;7.914;2022-12-17T08:40:19;101770.69;;;-5.20;79.69
64644;BME280;51056;50.330;7.914;2022-12-17T08:43:43;101771.41;;;-4.70;78.73
64644;BME280;51056;50.330;7.914;2022-12-17T08:47:08;101775.53;;;-4.75;79.21
64644;BME280;51056;50.330;7.914;2022-12-17T08:50:30;101782.84;;;-4.57;78.18
64644;BME280;51056;50.330;7.914;2022-12-17T08:54:01;101779.22;;;-4.37;77.71
64644;BME280;51056;50.330;7.914;2022-12-17T08:57:22;101785.88;;;-4.40;77.68
64644;BME280;51056;50.330;7.914;2022-12-17T09:00:47;101782.63;;;-4.36;77.17
64644;BME280;51056;50.330;7.914;2022-12-17T09:04:19;101789.63;;;-4.29;78.26
64644;BME280;51056;50.330;7.914;2022-12-17T09:08:08;101788.31;;;-4.45;77.77
64644;BME280;51056;50.330;7.914;2022-12-17T09:12:28;101786.50;;;-4.19;77.06
64644;BME280;51056;50.330;7.914;2022-12-17T09:15:54;101797.03;;;-4.38;77.26
64644;BME280;51056;50.330;7.914;2022-12-17T09:19:16;101795.66;;;-4.27;77.13
64644;BME280;51056;50.330;7.914;2022-12-17T09:22:38;101793.19;;;-4.24;77.10
64644;BME280;51056;50.330;7.914;2022-12-17T09:26:00;101789.47;;;-4.35;76.75
64644;BME280;51056;50.330;7.914;2022-12-17T09:29:22;101795.75;;;-4.24;76.99
64644;BME280;51056;50.330;7.914;2022-12-17T09:32:44;101792.13;;;-4.31;76.85
64644;BME280;51056;50.330;7.914;2022-12-17T09:36:06;101798.72;;;-4.09;76.03
64644;BME280;51056;50.330;7.914;2022-12-17T09:39:28;101797.59;;;-4.18;75.86
64644;BME280;51056;50.330;7.914;2022-12-17T09:51:28;101805.22;;;-4.20;77.09
64644;BME280;51056;50.330;7.914;2022-12-17T09:54:57;101804.22;;;-4.25;76.38
64644;BME280;51056;50.330;7.914;2022-12-17T09:58:43;101801.94;;;-4.16;75.97
64644;BME280;51056;50.330;7.914;2022-12-17T10:02:34;101813.25;;;-4.08;75.42
64644;BME280;51056;50.330;7.914;2022-12-17T10:06:06;101815.88;;;-4.05;75.11
64644;BME280;51056;50.330;7.914;2022-12-17T10:10:23;101813.75;;;-4.48;75.62
64644;BME280;51056;50.330;7.914;2022-12-17T10:13:32;101814.63;;;-4.48;75.87
64644;BME280;51056;50.330;7.914;2022-12-17T10:17:41;101820.72;;;-4.71;76.20
64644;BME280;51056;50.330;7.914;2022-12-17T10:21:19;101823.47;;;-4.36;76.52
64644;BME280;51056;50.330;7.914;2022-12-17T10:24:46;101828.03;;;-4.26;76.85
64644;BME280;51056;50.330;7.914;2022-12-17T10:28:19;101835.44;;;-5.17;78.39
64644;BME280;51056;50.330;7.914;2022-12-17T10:32:23;101829.19;;;-4.44;76.82
64644;BME280;51056;50.330;7.914;2022-12-17T10:35:45;101830.50;;;-4.56;76.00
64644;BME280;51056;50.330;7.914;2022-12-17T10:39:19;101828.25;;;-4.18;75.51
64644;BME280;51056;50.330;7.914;2022-12-17T10:42:41;101834.56;;;-4.06;75.06
64644;BME280;51056;50.330;7.914;2022-12-17T10:46:03;101843.31;;;-3.98;75.01
64644;BME280;51056;50.330;7.914;2022-12-17T10:49:25;101839.66;;;-4.06;74.41
64644;BME280;51056;50.330;7.914;2022-12-17T10:52:47;101843.53;;;-3.90;74.46
64644;BME280;51056;50.330;7.914;2022-12-17T10:56:21;101839.94;;;-3.97;74.36
64644;BME280;51056;50.330;7.914;2022-12-17T10:59:44;101845.19;;;-3.92;74.77
64644;BME280;51056;50.330;7.914;2022-12-17T11:03:23;101843.59;;;-3.88;74.17
64644;BME280;51056;50.330;7.914;2022-12-17T11:06:50;101842.59;;;-3.62;73.50
64644;BME280;51056;50.330;7.914;2022-12-17T11:10:19;101841.88;;;-3.88;73.82
64644;BME280;51056;50.330;7.914;2022-12-17T11:13:44;101851.91;;;-3.95;73.59
64644;BME280;51056;50.330;7.914;2022-12-17T11:17:13;101865.66;;;-3.90;73.83
64644;BME280;51056;50.330;7.914;2022-12-17T11:21:06;101855.34;;;-4.24;74.19
64644;BME280;51056;50.330;7.914;2022-12-17T11:28:37;101846.88;;;-3.92;73.96
64644;BME280;51056;50.330;7.914;2022-12-17T11:39:36;101853.81;;;-3.88;74.50
64644;BME280;51056;50.330;7.914;2022-12-17T11:43:39;101852.13;;;-3.86;74.63
64644;BME280;51056;50.330;7.914;2022-12-17T11:52:23;101859.59;;;-4.24;75.42
64644;BME280;51056;50.330;7.914;2022-12-17T12:10:04;101852.31;;;-4.10;75.18
64644;BME280;51056;50.330;7.914;2022-12-17T12:13:59;101846.81;;;-3.95;75.75
64644;BME280;51056;50.330;7.914;2022-12-17T12:21:39;101845.94;;;-3.64;73.12
64644;BME280;51056;50.330;7.914;2022-12-17T12:25:40;101842.34;;;-3.71;75.43
64644;BME280;51056;50.330;7.914;2022-12-17T12:29:27;101841.44;;;-3.41;74.09
64644;BME280;51056;50.330;7.914;2022-12-17T12:32:59;101849.34;;;-3.95;74.70
64644;BME280;51056;50.330;7.914;2022-12-17T12:36:27;101848.16;;;-4.07;75.92
64644;BME280;51056;50.330;7.914;2022-12-17T12:40:04;101841.59;;;-3.99;75.68
64644;BME280;51056;50.330;7.914;2022-12-17T12:43:36;101843.59;;;-3.88;75.26
64644;BME280;51056;50.330;7.914;2022-12-17T12:47:08;101844.16;;;-3.99;76.10
64644;BME280;51056;50.330;7.914;2022-12-17T12:50:59;101850.25;;;-3.63;74.93
64644;BME280;51056;50.330;7.914;2022-12-17T12:58:26;101836.72;;;-3.89;75.93
64644;BME280;51056;50.330;7.914;2022-12-17T13:05:59;101833.38;;;-3.88;76.49
64644;BME280;51056;50.330;7.914;2022-12-17T13:13:05;101838.66;;;-3.82;75.86
64644;BME280;51056;50.330;7.914;2022-12-17T13:16:47;101834.47;;;-3.79;75.66
64644;BME280;51056;50.330;7.914;2022-12-17T13:23:15;101829.06;;;-3.58;74.52
64644;BME280;51056;50.330;7.914;2022-12-17T13:26:22;101833.72;;;-3.76;74.70
64644;BME280;51056;50.330;7.914;2022-12-17T13:29:34;101819.84;;;-3.84;75.65
64644;BME280;51056;50.330;7.914;2022-12-17T13:39:42;101830.06;;;-3.84;75.72
64644;BME280;51056;50.330;7.914;2022-12-17T13:42:47;101832.59;;;-3.86;76.44
64644;BME280;51056;50.330;7.914;2022-12-17T13:45:53;101837.31;;;-3.68;75.21
64644;BME280;51056;50.330;7.914;2022-12-17T13:49:05;101833.09;;;-3.98;76.20
64644;BME280;51056;50.330;7.914;2022-12-17T13:52:28;101840.38;;;-4.11;76.35
64644;BME280;51056;50.330;7.914;2022-12-17T13:55:38;101838.47;;;-3.88;76.80
64644;BME280;51056;50.330;7.914;2022-12-17T13:58:49;101841.78;;;-3.92;76.16
64644;BME280;51056;50.330;7.914;2022-12-17T14:01:53;101834.22;;;-3.88;76.69
64644;BME280;51056;50.330;7.914;2022-12-17T14:05:00;101831.56;;;-3.92;76.53
64644;BME280;51056;50.330;7.914;2022-12-17T14:08:07;101838.22;;;-3.98;76.20
64644;BME280;51056;50.330;7.914;2022-12-17T14:11:25;101848.34;;;-4.01;76.65
64644;BME280;51056;50.330;7.914;2022-12-17T14:15:26;101842.56;;;-3.93;76.03
64644;BME280;51056;50.330;7.914;2022-12-17T14:18:39;101846.66;;;-4.30;77.67
64644;BME280;51056;50.330;7.914;2022-12-17T14:22:04;101851.59;;;-4.06;77.00
64644;BME280;51056;50.330;7.914;2022-12-17T14:25:38;101855.25;;;-3.97;77.04
64644;BME280;51056;50.330;7.914;2022-12-17T14:29:30;101856.75;;;-4.05;76.39
64644;BME280;51056;50.330;7.914;2022-12-17T14:32:42;101861.50;;;-4.17;76.74
64644;BME280;51056;50.330;7.914;2022-12-17T14:35:53;101859.75;;;-4.18;76.92
64644;BME280;51056;50.330;7.914;2022-12-17T14:39:13;101857.91;;;-4.24;77.15
64644;BME280;51056;50.330;7.914;2022-12-17T14:42:22;101856.88;;;-4.29;77.85
64644;BME280;51056;50.330;7.914;2022-12-17T14:49:54;101858.38;;;-4.07;77.06
64644;BME280;51056;50.330;7.914;2022-12-17T14:53:28;101867.78;;;-4.34;76.95
64644;BME280;51056;50.330;7.914;2022-12-17T14:57:22;101864.78;;;-4.21;77.04
64644;BME280;51056;50.330;7.914;2022-12-17T15:01:33;101869.72;;;-4.27;76.77
64644;BME280;51056;50.330;7.914;2022-12-17T15:04:45;101868.44;;;-4.13;77.08
64644;BME280;51056;50.330;7.914;2022-12-17T15:07:49;101877.63;;;-4.18;76.69
64644;BME280;51056;50.330;7.914;2022-12-17T15:11:08;101869.81;;;-4.24;77.36
64644;BME280;51056;50.330;7.914;2022-12-17T15:14:12;101873.72;;;-4.07;76.60
64644;BME280;51056;50.330;7.914;2022-12-17T15:17:19;101875.63;;;-4.00;76.22
64644;BME280;51056;50.330;7.914;2022-12-17T15:21:11;101878.94;;;-4.31;76.69
64644;BME280;51056;50.330;7.914;2022-12-17T15:24:16;101894.78;;;-4.42;77.45
64644;BME280;51056;50.330;7.914;2022-12-17T15:27:20;101886.88;;;-4.50;77.17
64644;BME280;51056;50.330;7.914;2022-12-17T15:30:24;101894.22;;;-4.34;77.14
64644;BME280;51056;50.330;7.914;2022-12-17T15:33:29;101891.31;;;-4.45;77.27
64644;BME280;51056;50.330;7.914;2022-12-17T15:36:36;101887.69;;;-4.24;77.10
64644;BME280;51056;50.330;7.914;2022-12-17T15:39:42;101905.13;;;-4.38;76.94
64644;BME280;51056;50.330;7.914;2022-12-17T15:42:45;101901.81;;;-4.35;76.48
64644;BME280;51056;50.330;7.914;2022-12-17T15:46:08;101907.94;;;-4.30;76.85
64644;BME280;51056;50.330;7.914;2022-12-17T15:49:43;101904.59;;;-4.55;77.23
64644;BME280;51056;50.330;7.914;2022-12-17T15:53:20;101915.50;;;-4.33;77.25
64644;BME280;51056;50.330;7.914;2022-12-17T15:56:52;101917.50;;;-4.23;76.89
64644;BME280;51056;50.330;7.914;2022-12-17T16:00:03;101918.84;;;-4.34;76.76
64644;BME280;51056;50.330;7.914;2022-12-17T16:03:33;101923.34;;;-4.27;76.96
64644;BME280;51056;50.330;7.914;2022-12-17T16:07:19;101928.72;;;-4.18;76.35
64644;BME280;51056;50.330;7.914;2022-12-17T16:10:42;101934.16;;;-4.34;77.02
64644;BME280;51056;50.330;7.914;2022-12-17T16:14:25;101932.25;;;-4.41;76.56
64644;BME280;51056;50.330;7.914;2022-12-17T16:17:29;101936.66;;;-4.63;77.26
64644;BME280;51056;50.330;7.914;2022-12-17T16:21:23;101933.50;;;-4.56;77.49
64644;BME280;51056;50.330;7.914;2022-12-17T16:24:51;101938.56;;;-4.83;78.04
64644;BME280;51056;50.330;7.914;2022-12-17T16:28:03;101938.91;;;-4.47;76.75
64644;BME280;51056;50.330;7.914;2022-12-17T16:31:48;101938.53;;;-4.59;77.64
64644;BME280;51056;50.330;7.914;2022-12-17T16:34:53;101938.75;;;-4.78;77.05
64644;BME280;51056;50.330;7.914;2022-12-17T16:37:59;101938.75;;;-4.78;77.38
64644;BME280;51056;50.330;7.914;2022-12-17T16:41:06;101948.94;;;-4.78;77.84
64644;BME280;51056;50.330;7.914;2022-12-17T16:44:29;101948.13;;;-4.77;77.58
64644;BME280;51056;50.330;7.914;2022-12-17T16:48:52;101952.78;;;-4.65;76.73
64644;BME280;51056;50.330;7.914;2022-12-17T16:59:33;101958.34;;;-4.50;76.59
64644;BME280;51056;50.330;7.914;2022-12-17T17:02:37;101960.34;;;-4.67;76.05
64644;BME280;51056;50.330;7.914;2022-12-17T17:05:40;101959.41;;;-4.71;76.38
64644;BME280;51056;50.330;7.914;2022-12-17T17:08:58;101962.72;;;-4.73;76.79
64644;BME280;51056;50.330;7.914;2022-12-17T17:12:44;101968.78;;;-4.70;75.86
64644;BME280;51056;50.330;7.914;2022-12-17T17:15:47;101973.41;;;-4.59;75.83
64644;BME280;51056;50.330;7.914;2022-12-17T17:18:57;101969.81;;;-4.64;75.53
64644;BME280;51056;50.330;7.914;2022-12-17T17:22:00;101963.94;;;-4.62;75.21
64644;BME280;51056;50.330;7.914;2022-12-17T17:25:04;101964.81;;;-4.61;75.92
64644;BME280;51056;50.330;7.914;2022-12-17T17:28:08;101972.19;;;-4.69;76.20
64644;BME280;51056;50.330;7.914;2022-12-17T17:31:14;101974.34;;;-4.56;76.03
64644;BME280;51056;50.330;7.914;2022-12-17T17:59:19;101980.88;;;-4.89;77.27
64644;BME280;51056;50.330;7.914;2022-12-17T18:06:01;101984.66;;;-4.78;76.85
64644;BME280;51056;50.330;7.914;2022-12-17T18:14:14;101986.72;;;-4.92;77.70
64644;BME280;51056;50.330;7.914;2022-12-17T18:17:29;101987.91;;;-4.57;75.92
64644;BME280;51056;50.330;7.914;2022-12-17T20:16:02;102037.38;;;-5.03;72.17
64644;BME280;51056;50.330;7.914;2022-12-17T20:33:20;102043.25;;;-5.29;72.46
64644;BME280;51056;50.330;7.914;2022-12-17T20:40:53;102039.34;;;-5.20;73.15
